sensor_id;sensor_type;location;lat;lon;timestamp;P1;durP1;ratioP1;P2;durP2;ratioP2
77870;SDS011;67067;46.850;7.578;2023-05-29T00:01:22;10.23;;;4.07;;
77870;SDS011;67067;46.850;7.578;2023-05-29T00:02:25;11.82;;;4.32;;
77870;SDS011;67067;46.850;7.578;2023-05-29T00:03:27;6.00;;;4.10;;
77870;SDS011;67067;46.850;7.578;2023-05-29T00:04:31;9.13;;;4.05;;
77870;SDS011;67067;46.850;7.578;2023-05-29T00:05:35;10.18;;;4.50;;
77870;SDS011;67067;46.850;7.578;2023-05-29T00:06:37;7.93;;;4.32;;
77870;SDS011;67067;46.850;7.578;2023-05-29T00:07:42;6.90;;;3.92;;
77870;SDS011;67067;46.850;7.578;2023-05-29T00:09:52;6.78;;;3.78;;
77870;SDS011;67067;46.850;7.578;2023-05-29T00:10:58;6.93;;;4.22;;
77870;SDS011;67067;46.850;7.578;2023-05-29T00:12:03;8.23;;;4.57;;
77870;SDS011;67067;46.850;7.578;2023-05-29T00:13:07;7.47;;;4.43;;
77870;SDS011;67067;46.850;7.578;2023-05-29T00:14:11;8.25;;;4.82;;
77870;SDS011;67067;46.850;7.578;2023-05-29T00:15:17;9.02;;;4.65;;
77870;SDS011;67067;46.850;7.578;2023-05-29T00:16:19;10.68;;;4.35;;
77870;SDS011;67067;46.850;7.578;2023-05-29T00:18:27;5.70;;;3.88;;
77870;SDS011;67067;46.850;7.578;2023-05-29T00:19:28;9.70;;;4.32;;
77870;SDS011;67067;46.850;7.578;2023-05-29T00:20:35;11.20;;;4.10;;
77870;SDS011;67067;46.850;7.578;2023-05-29T00:21:42;9.82;;;4.50;;
77870;SDS011;67067;46.850;7.578;2023-05-29T00:22:44;7.82;;;4.18;;
77870;SDS011;67067;46.850;7.578;2023-05-29T00:24:53;7.55;;;4.28;;
77870;SDS011;67067;46.850;7.578;2023-05-29T00:25:58;7.13;;;4.03;;
77870;SDS011;67067;46.850;7.578;2023-05-29T00:28:02;6.65;;;4.28;;
77870;SDS011;67067;46.850;7.578;2023-05-29T00:29:05;9.77;;;4.55;;
77870;SDS011;67067;46.850;7.578;2023-05-29T00:30:07;7.75;;;4.13;;
77870;SDS011;67067;46.850;7.578;2023-05-29T00:31:09;12.52;;;4.40;;
77870;SDS011;67067;46.850;7.578;2023-05-29T00:32:16;8.32;;;4.50;;
77870;SDS011;67067;46.850;7.578;2023-05-29T00:33:19;11.77;;;5.10;;
77870;SDS011;67067;46.850;7.578;2023-05-29T00:34:24;7.72;;;4.75;;
77870;SDS011;67067;46.850;7.578;2023-05-29T00:35:28;8.95;;;4.72;;
77870;SDS011;67067;46.850;7.578;2023-05-29T00:36:37;8.18;;;4.80;;
77870;SDS011;67067;46.850;7.578;2023-05-29T00:37:41;8.60;;;4.57;;
77870;SDS011;67067;46.850;7.578;2023-05-29T00:38:44;8.77;;;4.65;;
77870;SDS011;67067;46.850;7.578;2023-05-29T00:40:52;8.95;;;4.72;;
77870;SDS011;67067;46.850;7.578;2023-05-29T00:42:57;9.60;;;4.28;;
77870;SDS011;67067;46.850;7.578;2023-05-29T00:44:07;7.15;;;4.50;;
77870;SDS011;67067;46.850;7.578;2023-05-29T00:45:26;8.70;;;4.35;;
77870;SDS011;67067;46.850;7.578;2023-05-29T00:46:34;10.27;;;4.63;;
77870;SDS011;67067;46.850;7.578;2023-05-29T00:47:39;7.25;;;4.55;;
77870;SDS011;67067;46.850;7.578;2023-05-29T00:48:42;7.53;;;4.90;;
77870;SDS011;67067;46.850;7.578;2023-05-29T00:49:55;7.03;;;4.10;;
77870;SDS011;67067;46.850;7.578;2023-05-29T00:50:59;11.20;;;5.03;;
77870;SDS011;67067;46.850;7.578;2023-05-29T00:52:01;5.28;;;4.15;;
77870;SDS011;67067;46.850;7.578;2023-05-29T00:53:11;9.23;;;4.90;;
77870;SDS011;67067;46.850;7.578;2023-05-29T00:54:20;8.02;;;4.75;;
77870;SDS011;67067;46.850;7.578;2023-05-29T00:55:25;11.75;;;5.00;;
77870;SDS011;67067;46.850;7.578;2023-05-29T00:56:31;10.25;;;5.20;;
77870;SDS011;67067;46.850;7.578;2023-05-29T00:57:34;8.40;;;4.32;;
77870;SDS011;67067;46.850;7.578;2023-05-29T00:58:39;12.30;;;5.07;;
77870;SDS011;67067;46.850;7.578;2023-05-29T00:59:56;10.18;;;4.97;;
77870;SDS011;67067;46.850;7.578;2023-05-29T01:00:59;11.40;;;4.93;;
77870;SDS011;67067;46.850;7.578;2023-05-29T01:02:02;9.27;;;4.45;;
77870;SDS011;67067;46.850;7.578;2023-05-29T01:03:06;8.73;;;4.50;;
77870;SDS011;67067;46.850;7.578;2023-05-29T01:04:18;11.88;;;4.72;;
77870;SDS011;67067;46.850;7.578;2023-05-29T01:05:22;10.10;;;4.75;;
77870;SDS011;67067;46.850;7.578;2023-05-29T01:06:26;7.53;;;4.65;;
77870;SDS011;67067;46.850;7.578;2023-05-29T01:08:30;8.10;;;4.65;;
77870;SDS011;67067;46.850;7.578;2023-05-29T01:09:38;8.60;;;4.70;;
77870;SDS011;67067;46.850;7.578;2023-05-29T01:10:40;10.13;;;4.78;;
77870;SDS011;67067;46.850;7.578;2023-05-29T01:16:06;8.50;;;4.82;;
77870;SDS011;67067;46.850;7.578;2023-05-29T01:18:31;8.48;;;5.40;;
77870;SDS011;67067;46.850;7.578;2023-05-29T01:22:46;9.40;;;4.93;;
77870;SDS011;67067;46.850;7.578;2023-05-29T01:27:51;10.82;;;5.15;;
77870;SDS011;67067;46.850;7.578;2023-05-29T01:29:01;16.08;;;5.63;;
77870;SDS011;67067;46.850;7.578;2023-05-29T01:30:11;9.88;;;5.30;;
77870;SDS011;67067;46.850;7.578;2023-05-29T01:31:18;7.68;;;5.15;;
77870;SDS011;67067;46.850;7.578;2023-05-29T01:32:26;10.52;;;5.22;;
77870;SDS011;67067;46.850;7.578;2023-05-29T01:33:38;7.90;;;4.80;;
77870;SDS011;67067;46.850;7.578;2023-05-29T01:34:50;11.98;;;5.28;;
77870;SDS011;67067;46.850;7.578;2023-05-29T01:35:52;11.30;;;5.45;;
77870;SDS011;67067;46.850;7.578;2023-05-29T01:36:57;8.85;;;4.85;;
77870;SDS011;67067;46.850;7.578;2023-05-29T01:38:03;8.15;;;4.80;;
77870;SDS011;67067;46.850;7.578;2023-05-29T01:39:16;9.57;;;4.63;;
77870;SDS011;67067;46.850;7.578;2023-05-29T01:40:20;9.45;;;4.57;;
77870;SDS011;67067;46.850;7.578;2023-05-29T01:41:26;7.03;;;4.80;;
77870;SDS011;67067;46.850;7.578;2023-05-29T01:42:28;10.07;;;4.93;;
77870;SDS011;67067;46.850;7.578;2023-05-29T01:43:31;9.95;;;4.90;;
77870;SDS011;67067;46.850;7.578;2023-05-29T01:44:36;12.02;;;4.80;;
77870;SDS011;67067;46.850;7.578;2023-05-29T01:45:49;13.65;;;5.32;;
77870;SDS011;67067;46.850;7.578;2023-05-29T01:46:56;12.10;;;5.38;;
77870;SDS011;67067;46.850;7.578;2023-05-29T01:48:05;9.55;;;4.85;;
77870;SDS011;67067;46.850;7.578;2023-05-29T01:49:20;7.47;;;4.80;;
77870;SDS011;67067;46.850;7.578;2023-05-29T01:50:42;7.65;;;4.88;;
77870;SDS011;67067;46.850;7.578;2023-05-29T01:51:46;8.68;;;5.30;;
77870;SDS011;67067;46.850;7.578;2023-05-29T01:52:48;8.55;;;5.13;;
77870;SDS011;67067;46.850;7.578;2023-05-29T01:54:01;8.98;;;5.30;;
77870;SDS011;67067;46.850;7.578;2023-05-29T01:55:07;9.00;;;4.63;;
77870;SDS011;67067;46.850;7.578;2023-05-29T01:56:12;10.23;;;4.75;;
77870;SDS011;67067;46.850;7.578;2023-05-29T01:57:18;9.00;;;5.28;;
77870;SDS011;67067;46.850;7.578;2023-05-29T01:58:23;9.38;;;4.78;;
77870;SDS011;67067;46.850;7.578;2023-05-29T01:59:29;9.65;;;5.10;;
77870;SDS011;67067;46.850;7.578;2023-05-29T02:00:31;7.57;;;4.95;;
77870;SDS011;67067;46.850;7.578;2023-05-29T02:01:33;13.65;;;5.50;;
77870;SDS011;67067;46.850;7.578;2023-05-29T02:02:36;9.93;;;4.90;;
77870;SDS011;67067;46.850;7.578;2023-05-29T02:03:42;11.70;;;4.78;;
77870;SDS011;67067;46.850;7.578;2023-05-29T02:04:46;8.63;;;4.65;;
77870;SDS011;67067;46.850;7.578;2023-05-29T02:06:01;8.63;;;5.18;;
77870;SDS011;67067;46.850;7.578;2023-05-29T02:07:08;9.13;;;4.65;;
77870;SDS011;67067;46.850;7.578;2023-05-29T02:08:14;10.52;;;5.38;;
77870;SDS011;67067;46.850;7.578;2023-05-29T02:09:21;10.35;;;5.35;;
77870;SDS011;67067;46.850;7.578;2023-05-29T02:10:23;11.27;;;5.40;;
77870;SDS011;67067;46.850;7.578;2023-05-29T02:11:31;11.05;;;5.30;;
77870;SDS011;67067;46.850;7.578;2023-05-29T02:12:41;13.27;;;5.60;;
77870;SDS011;67067;46.850;7.578;2023-05-29T02:13:46;9.05;;;5.20;;
77870;SDS011;67067;46.850;7.578;2023-05-29T02:15:52;8.07;;;4.90;;
77870;SDS011;67067;46.850;7.578;2023-05-29T02:16:54;8.10;;;4.70;;
77870;SDS011;67067;46.850;7.578;2023-05-29T02:17:56;8.25;;;5.00;;
77870;SDS011;67067;46.850;7.578;2023-05-29T02:19:01;10.48;;;4.72;;
77870;SDS011;67067;46.850;7.578;2023-05-29T02:20:03;9.30;;;5.10;;
77870;SDS011;67067;46.850;7.578;2023-05-29T02:21:09;12.13;;;5.20;;
77870;SDS011;67067;46.850;7.578;2023-05-29T02:22:13;10.35;;;4.95;;
77870;SDS011;67067;46.850;7.578;2023-05-29T02:23:19;11.85;;;5.20;;
77870;SDS011;67067;46.850;7.578;2023-05-29T02:24:29;12.52;;;5.25;;
77870;SDS011;67067;46.850;7.578;2023-05-29T02:25:41;14.68;;;5.40;;
77870;SDS011;67067;46.850;7.578;2023-05-29T02:26:43;11.48;;;4.93;;
77870;SDS011;67067;46.850;7.578;2023-05-29T02:27:46;8.98;;;4.80;;
77870;SDS011;67067;46.850;7.578;2023-05-29T02:28:58;11.13;;;5.57;;
77870;SDS011;67067;46.850;7.578;2023-05-29T02:30:00;10.27;;;5.20;;
77870;SDS011;67067;46.850;7.578;2023-05-29T02:31:12;6.82;;;4.70;;
77870;SDS011;67067;46.850;7.578;2023-05-29T02:32:16;9.85;;;5.35;;
77870;SDS011;67067;46.850;7.578;2023-05-29T02:33:21;11.88;;;5.38;;
77870;SDS011;67067;46.850;7.578;2023-05-29T02:34:28;9.38;;;5.07;;
77870;SDS011;67067;46.850;7.578;2023-05-29T02:35:30;8.75;;;5.30;;
77870;SDS011;67067;46.850;7.578;2023-05-29T02:36:32;11.30;;;5.32;;
77870;SDS011;67067;46.850;7.578;2023-05-29T02:38:39;9.38;;;4.97;;
77870;SDS011;67067;46.850;7.578;2023-05-29T02:39:41;9.65;;;5.18;;
77870;SDS011;67067;46.850;7.578;2023-05-29T02:40:43;9.73;;;5.40;;
77870;SDS011;67067;46.850;7.578;2023-05-29T02:41:51;10.52;;;4.95;;
77870;SDS011;67067;46.850;7.578;2023-05-29T02:42:53;10.90;;;5.30;;
77870;SDS011;67067;46.850;7.578;2023-05-29T02:44:59;7.18;;;4.80;;
77870;SDS011;67067;46.850;7.578;2023-05-29T02:46:03;10.13;;;5.38;;
77870;SDS011;67067;46.850;7.578;2023-05-29T02:47:08;7.72;;;5.07;;
77870;SDS011;67067;46.850;7.578;2023-05-29T02:48:15;10.80;;;5.07;;
77870;SDS011;67067;46.850;7.578;2023-05-29T02:49:22;11.25;;;5.18;;
77870;SDS011;67067;46.850;7.578;2023-05-29T02:50:31;8.43;;;4.88;;
77870;SDS011;67067;46.850;7.578;2023-05-29T02:52:37;7.70;;;5.03;;
77870;SDS011;67067;46.850;7.578;2023-05-29T02:53:53;9.93;;;5.40;;
77870;SDS011;67067;46.850;7.578;2023-05-29T02:54:59;8.73;;;5.15;;
77870;SDS011;67067;46.850;7.578;2023-05-29T02:56:05;12.05;;;5.50;;
77870;SDS011;67067;46.850;7.578;2023-05-29T02:57:15;11.05;;;5.28;;
77870;SDS011;67067;46.850;7.578;2023-05-29T02:58:27;10.75;;;4.85;;
77870;SDS011;67067;46.850;7.578;2023-05-29T02:59:37;8.50;;;4.70;;
77870;SDS011;67067;46.850;7.578;2023-05-29T03:01:40;9.70;;;4.85;;
77870;SDS011;67067;46.850;7.578;2023-05-29T03:02:51;9.73;;;4.65;;
77870;SDS011;67067;46.850;7.578;2023-05-29T03:04:06;8.68;;;5.00;;
77870;SDS011;67067;46.850;7.578;2023-05-29T03:05:12;7.95;;;5.00;;
77870;SDS011;67067;46.850;7.578;2023-05-29T03:06:17;13.18;;;5.55;;
77870;SDS011;67067;46.850;7.578;2023-05-29T03:07:26;13.20;;;5.35;;
77870;SDS011;67067;46.850;7.578;2023-05-29T03:08:29;12.05;;;5.28;;
77870;SDS011;67067;46.850;7.578;2023-05-29T03:09:40;8.63;;;4.90;;
77870;SDS011;67067;46.850;7.578;2023-05-29T03:10:43;10.50;;;5.50;;
77870;SDS011;67067;46.850;7.578;2023-05-29T03:11:53;9.65;;;4.95;;
77870;SDS011;67067;46.850;7.578;2023-05-29T03:12:55;9.40;;;5.18;;
77870;SDS011;67067;46.850;7.578;2023-05-29T03:14:23;10.40;;;5.45;;
77870;SDS011;67067;46.850;7.578;2023-05-29T03:15:25;10.75;;;5.13;;
77870;SDS011;67067;46.850;7.578;2023-05-29T03:17:33;11.95;;;4.82;;
77870;SDS011;67067;46.850;7.578;2023-05-29T03:19:37;10.60;;;5.07;;
77870;SDS011;67067;46.850;7.578;2023-05-29T03:20:48;10.50;;;5.85;;
77870;SDS011;67067;46.850;7.578;2023-05-29T03:22:05;10.25;;;5.85;;
77870;SDS011;67067;46.850;7.578;2023-05-29T03:23:11;11.55;;;5.43;;
77870;SDS011;67067;46.850;7.578;2023-05-29T03:24:16;9.82;;;5.60;;
77870;SDS011;67067;46.850;7.578;2023-05-29T03:25:24;9.88;;;5.10;;
77870;SDS011;67067;46.850;7.578;2023-05-29T03:26:33;12.23;;;5.75;;
77870;SDS011;67067;46.850;7.578;2023-05-29T03:27:40;11.98;;;5.88;;
77870;SDS011;67067;46.850;7.578;2023-05-29T03:28:53;9.20;;;5.03;;
77870;SDS011;67067;46.850;7.578;2023-05-29T03:30:00;9.23;;;5.13;;
77870;SDS011;67067;46.850;7.578;2023-05-29T03:31:07;13.02;;;5.50;;
77870;SDS011;67067;46.850;7.578;2023-05-29T03:32:11;9.80;;;5.25;;
77870;SDS011;67067;46.850;7.578;2023-05-29T03:34:37;10.85;;;5.57;;
77870;SDS011;67067;46.850;7.578;2023-05-29T03:35:40;10.77;;;5.70;;
77870;SDS011;67067;46.850;7.578;2023-05-29T03:36:52;7.95;;;4.80;;
77870;SDS011;67067;46.850;7.578;2023-05-29T03:37:54;9.48;;;4.93;;
77870;SDS011;67067;46.850;7.578;2023-05-29T03:38:59;11.07;;;5.30;;
77870;SDS011;67067;46.850;7.578;2023-05-29T03:40:16;9.73;;;5.50;;
77870;SDS011;67067;46.850;7.578;2023-05-29T03:41:18;10.68;;;5.50;;
77870;SDS011;67067;46.850;7.578;2023-05-29T03:42:33;13.38;;;5.30;;
77870;SDS011;67067;46.850;7.578;2023-05-29T03:43:37;11.52;;;5.60;;
77870;SDS011;67067;46.850;7.578;2023-05-29T03:44:43;10.98;;;5.53;;
77870;SDS011;67067;46.850;7.578;2023-05-29T03:45:50;9.77;;;5.00;;
77870;SDS011;67067;46.850;7.578;2023-05-29T03:47:57;9.25;;;5.28;;
77870;SDS011;67067;46.850;7.578;2023-05-29T03:49:06;14.02;;;5.55;;
77870;SDS011;67067;46.850;7.578;2023-05-29T03:50:14;13.80;;;5.55;;
77870;SDS011;67067;46.850;7.578;2023-05-29T03:51:22;14.35;;;5.82;;
77870;SDS011;67067;46.850;7.578;2023-05-29T03:52:29;11.27;;;5.38;;
77870;SDS011;67067;46.850;7.578;2023-05-29T03:53:33;9.50;;;4.95;;
77870;SDS011;67067;46.850;7.578;2023-05-29T03:55:41;9.32;;;5.15;;
77870;SDS011;67067;46.850;7.578;2023-05-29T03:56:45;15.00;;;5.45;;
77870;SDS011;67067;46.850;7.578;2023-05-29T03:57:58;12.02;;;5.28;;
77870;SDS011;67067;46.850;7.578;2023-05-29T03:59:10;12.15;;;5.53;;
77870;SDS011;67067;46.850;7.578;2023-05-29T04:00:28;11.35;;;5.22;;
77870;SDS011;67067;46.850;7.578;2023-05-29T04:01:34;11.25;;;5.38;;
77870;SDS011;67067;46.850;7.578;2023-05-29T04:02:36;10.73;;;5.82;;
77870;SDS011;67067;46.850;7.578;2023-05-29T04:03:39;10.30;;;5.60;;
77870;SDS011;67067;46.850;7.578;2023-05-29T04:04:45;11.15;;;5.78;;
77870;SDS011;67067;46.850;7.578;2023-05-29T04:05:51;10.18;;;5.85;;
77870;SDS011;67067;46.850;7.578;2023-05-29T04:06:56;12.23;;;5.80;;
77870;SDS011;67067;46.850;7.578;2023-05-29T04:08:01;8.60;;;4.75;;
77870;SDS011;67067;46.850;7.578;2023-05-29T04:09:17;11.27;;;5.85;;
77870;SDS011;67067;46.850;7.578;2023-05-29T04:10:23;12.32;;;5.80;;
77870;SDS011;67067;46.850;7.578;2023-05-29T04:11:34;10.60;;;5.45;;
77870;SDS011;67067;46.850;7.578;2023-05-29T04:12:40;11.02;;;5.15;;
77870;SDS011;67067;46.850;7.578;2023-05-29T04:14:48;12.85;;;5.20;;
77870;SDS011;67067;46.850;7.578;2023-05-29T04:15:49;13.55;;;5.28;;
77870;SDS011;67067;46.850;7.578;2023-05-29T04:17:02;9.10;;;4.63;;
77870;SDS011;67067;46.850;7.578;2023-05-29T04:18:16;9.98;;;5.30;;
77870;SDS011;67067;46.850;7.578;2023-05-29T04:19:20;9.43;;;5.30;;
77870;SDS011;67067;46.850;7.578;2023-05-29T04:20:26;11.27;;;5.38;;
77870;SDS011;67067;46.850;7.578;2023-05-29T04:21:32;8.85;;;5.35;;
77870;SDS011;67067;46.850;7.578;2023-05-29T04:22:44;12.02;;;5.30;;
77870;SDS011;67067;46.850;7.578;2023-05-29T04:23:53;12.50;;;5.80;;
77870;SDS011;67067;46.850;7.578;2023-05-29T04:26:00;10.95;;;5.25;;
77870;SDS011;67067;46.850;7.578;2023-05-29T04:27:10;12.05;;;5.07;;
77870;SDS011;67067;46.850;7.578;2023-05-29T04:28:18;11.75;;;5.40;;
77870;SDS011;67067;46.850;7.578;2023-05-29T04:29:22;13.18;;;5.97;;
77870;SDS011;67067;46.850;7.578;2023-05-29T04:32:43;13.10;;;5.38;;
77870;SDS011;67067;46.850;7.578;2023-05-29T04:33:54;10.45;;;5.80;;
77870;SDS011;67067;46.850;7.578;2023-05-29T04:35:07;9.27;;;5.72;;
77870;SDS011;67067;46.850;7.578;2023-05-29T04:36:18;10.57;;;5.85;;
77870;SDS011;67067;46.850;7.578;2023-05-29T04:37:24;10.88;;;5.32;;
77870;SDS011;67067;46.850;7.578;2023-05-29T04:38:32;14.23;;;5.78;;
77870;SDS011;67067;46.850;7.578;2023-05-29T04:39:37;10.32;;;5.25;;
77870;SDS011;67067;46.850;7.578;2023-05-29T04:40:42;9.93;;;5.43;;
77870;SDS011;67067;46.850;7.578;2023-05-29T04:43:04;9.88;;;5.43;;
77870;SDS011;67067;46.850;7.578;2023-05-29T04:44:28;8.98;;;5.30;;
77870;SDS011;67067;46.850;7.578;2023-05-29T04:45:34;9.65;;;5.30;;
77870;SDS011;67067;46.850;7.578;2023-05-29T04:46:47;10.25;;;5.13;;
77870;SDS011;67067;46.850;7.578;2023-05-29T04:47:54;12.40;;;5.30;;
77870;SDS011;67067;46.850;7.578;2023-05-29T04:49:00;11.35;;;5.40;;
77870;SDS011;67067;46.850;7.578;2023-05-29T04:50:10;12.55;;;5.60;;
77870;SDS011;67067;46.850;7.578;2023-05-29T04:51:17;10.68;;;5.68;;
77870;SDS011;67067;46.850;7.578;2023-05-29T04:52:22;11.40;;;5.22;;
77870;SDS011;67067;46.850;7.578;2023-05-29T04:53:26;9.25;;;5.28;;
77870;SDS011;67067;46.850;7.578;2023-05-29T04:55:31;11.63;;;5.32;;
77870;SDS011;67067;46.850;7.578;2023-05-29T04:57:42;8.75;;;5.60;;
77870;SDS011;67067;46.850;7.578;2023-05-29T04:58:48;8.48;;;5.25;;
77870;SDS011;67067;46.850;7.578;2023-05-29T05:00:03;9.90;;;5.80;;
77870;SDS011;67067;46.850;7.578;2023-05-29T05:01:46;12.93;;;5.65;;
77870;SDS011;67067;46.850;7.578;2023-05-29T05:02:52;12.48;;;5.70;;
77870;SDS011;67067;46.850;7.578;2023-05-29T05:04:07;11.23;;;5.60;;
77870;SDS011;67067;46.850;7.578;2023-05-29T05:05:10;10.40;;;5.65;;
77870;SDS011;67067;46.850;7.578;2023-05-29T05:06:15;11.48;;;5.80;;
77870;SDS011;67067;46.850;7.578;2023-05-29T05:07:19;13.35;;;5.70;;
77870;SDS011;67067;46.850;7.578;2023-05-29T05:08:45;13.10;;;5.63;;
77870;SDS011;67067;46.850;7.578;2023-05-29T05:09:49;11.48;;;6.15;;
77870;SDS011;67067;46.850;7.578;2023-05-29T05:11:00;10.55;;;5.45;;
77870;SDS011;67067;46.850;7.578;2023-05-29T05:12:07;9.32;;;5.43;;
77870;SDS011;67067;46.850;7.578;2023-05-29T05:13:29;9.95;;;5.80;;
77870;SDS011;67067;46.850;7.578;2023-05-29T05:14:47;12.10;;;5.85;;
77870;SDS011;67067;46.850;7.578;2023-05-29T05:15:58;7.82;;;5.00;;
77870;SDS011;67067;46.850;7.578;2023-05-29T05:17:07;11.82;;;5.50;;
77870;SDS011;67067;46.850;7.578;2023-05-29T05:19:11;10.32;;;5.32;;
77870;SDS011;67067;46.850;7.578;2023-05-29T05:20:17;7.93;;;5.40;;
77870;SDS011;67067;46.850;7.578;2023-05-29T05:21:32;10.18;;;5.40;;
77870;SDS011;67067;46.850;7.578;2023-05-29T05:22:39;8.90;;;5.40;;
77870;SDS011;67067;46.850;7.578;2023-05-29T05:23:49;11.27;;;5.35;;
77870;SDS011;67067;46.850;7.578;2023-05-29T05:25:00;11.75;;;5.72;;
77870;SDS011;67067;46.850;7.578;2023-05-29T05:26:05;9.20;;;5.20;;
77870;SDS011;67067;46.850;7.578;2023-05-29T05:27:11;10.07;;;5.68;;
77870;SDS011;67067;46.850;7.578;2023-05-29T05:29:15;13.50;;;5.38;;
77870;SDS011;67067;46.850;7.578;2023-05-29T05:30:21;10.18;;;5.53;;
77870;SDS011;67067;46.850;7.578;2023-05-29T05:31:25;12.25;;;5.75;;
77870;SDS011;67067;46.850;7.578;2023-05-29T05:32:44;8.90;;;5.05;;
77870;SDS011;67067;46.850;7.578;2023-05-29T05:33:57;13.77;;;5.70;;
77870;SDS011;67067;46.850;7.578;2023-05-29T05:35:00;9.93;;;5.53;;
77870;SDS011;67067;46.850;7.578;2023-05-29T05:36:07;9.75;;;5.28;;
77870;SDS011;67067;46.850;7.578;2023-05-29T05:37:11;9.95;;;5.47;;
77870;SDS011;67067;46.850;7.578;2023-05-29T05:38:34;7.88;;;5.30;;
77870;SDS011;67067;46.850;7.578;2023-05-29T05:39:47;7.05;;;5.25;;
77870;SDS011;67067;46.850;7.578;2023-05-29T05:40:58;7.93;;;5.13;;
77870;SDS011;67067;46.850;7.578;2023-05-29T05:42:08;12.23;;;5.65;;
77870;SDS011;67067;46.850;7.578;2023-05-29T05:43:21;10.75;;;5.55;;
77870;SDS011;67067;46.850;7.578;2023-05-29T05:44:40;10.40;;;5.43;;
77870;SDS011;67067;46.850;7.578;2023-05-29T05:46:00;10.30;;;5.80;;
77870;SDS011;67067;46.850;7.578;2023-05-29T05:47:11;8.07;;;5.18;;
77870;SDS011;67067;46.850;7.578;2023-05-29T05:48:16;8.20;;;4.80;;
77870;SDS011;67067;46.850;7.578;2023-05-29T05:49:25;9.75;;;5.20;;
77870;SDS011;67067;46.850;7.578;2023-05-29T05:50:46;8.88;;;5.22;;
77870;SDS011;67067;46.850;7.578;2023-05-29T05:51:48;11.30;;;5.78;;
77870;SDS011;67067;46.850;7.578;2023-05-29T05:52:53;10.75;;;5.50;;
77870;SDS011;67067;46.850;7.578;2023-05-29T05:54:08;11.77;;;5.68;;
77870;SDS011;67067;46.850;7.578;2023-05-29T05:55:10;8.05;;;5.25;;
77870;SDS011;67067;46.850;7.578;2023-05-29T05:56:31;9.88;;;5.50;;
77870;SDS011;67067;46.850;7.578;2023-05-29T05:57:46;7.03;;;5.35;;
77870;SDS011;67067;46.850;7.578;2023-05-29T05:58:48;10.00;;;5.13;;
77870;SDS011;67067;46.850;7.578;2023-05-29T05:59:54;9.07;;;5.55;;
77870;SDS011;67067;46.850;7.578;2023-05-29T06:01:05;10.88;;;6.10;;
77870;SDS011;67067;46.850;7.578;2023-05-29T06:02:11;9.15;;;5.78;;
77870;SDS011;67067;46.850;7.578;2023-05-29T06:03:15;8.23;;;4.82;;
77870;SDS011;67067;46.850;7.578;2023-05-29T06:04:31;9.57;;;5.68;;
77870;SDS011;67067;46.850;7.578;2023-05-29T06:05:32;9.88;;;5.50;;
77870;SDS011;67067;46.850;7.578;2023-05-29T06:06:40;11.05;;;5.70;;
77870;SDS011;67067;46.850;7.578;2023-05-29T06:07:45;11.45;;;5.50;;
77870;SDS011;67067;46.850;7.578;2023-05-29T06:08:59;11.30;;;5.47;;
77870;SDS011;67067;46.850;7.578;2023-05-29T06:10:04;8.10;;;5.20;;
77870;SDS011;67067;46.850;7.578;2023-05-29T06:11:09;9.70;;;5.40;;
77870;SDS011;67067;46.850;7.578;2023-05-29T06:12:19;12.73;;;5.45;;
77870;SDS011;67067;46.850;7.578;2023-05-29T06:13:30;9.25;;;5.22;;
77870;SDS011;67067;46.850;7.578;2023-05-29T06:14:42;10.32;;;5.70;;
77870;SDS011;67067;46.850;7.578;2023-05-29T06:15:46;9.68;;;5.32;;
77870;SDS011;67067;46.850;7.578;2023-05-29T06:16:53;11.90;;;5.75;;
77870;SDS011;67067;46.850;7.578;2023-05-29T06:17:59;9.27;;;5.20;;
77870;SDS011;67067;46.850;7.578;2023-05-29T06:19:05;9.98;;;5.45;;
77870;SDS011;67067;46.850;7.578;2023-05-29T06:21:37;11.38;;;5.85;;
77870;SDS011;67067;46.850;7.578;2023-05-29T06:22:40;11.63;;;5.43;;
77870;SDS011;67067;46.850;7.578;2023-05-29T06:23:44;9.68;;;5.50;;
77870;SDS011;67067;46.850;7.578;2023-05-29T06:24:51;14.68;;;5.60;;
77870;SDS011;67067;46.850;7.578;2023-05-29T06:26:03;11.88;;;5.63;;
77870;SDS011;67067;46.850;7.578;2023-05-29T06:27:15;12.90;;;5.80;;
77870;SDS011;67067;46.850;7.578;2023-05-29T06:28:24;11.25;;;5.32;;
77870;SDS011;67067;46.850;7.578;2023-05-29T06:29:35;11.00;;;5.43;;
77870;SDS011;67067;46.850;7.578;2023-05-29T06:30:37;11.82;;;5.80;;
77870;SDS011;67067;46.850;7.578;2023-05-29T06:31:47;10.23;;;5.47;;
77870;SDS011;67067;46.850;7.578;2023-05-29T06:32:56;15.35;;;5.88;;
77870;SDS011;67067;46.850;7.578;2023-05-29T06:34:05;9.70;;;5.50;;
77870;SDS011;67067;46.850;7.578;2023-05-29T06:35:34;14.48;;;5.50;;
77870;SDS011;67067;46.850;7.578;2023-05-29T06:36:42;8.93;;;5.45;;
77870;SDS011;67067;46.850;7.578;2023-05-29T06:37:49;7.85;;;5.00;;
77870;SDS011;67067;46.850;7.578;2023-05-29T06:38:59;11.00;;;5.40;;
77870;SDS011;67067;46.850;7.578;2023-05-29T06:40:36;8.55;;;4.85;;
77870;SDS011;67067;46.850;7.578;2023-05-29T06:41:51;11.35;;;5.57;;
77870;SDS011;67067;46.850;7.578;2023-05-29T06:43:02;10.90;;;5.60;;
77870;SDS011;67067;46.850;7.578;2023-05-29T06:44:27;8.43;;;5.40;;
77870;SDS011;67067;46.850;7.578;2023-05-29T06:45:32;7.07;;;5.28;;
77870;SDS011;67067;46.850;7.578;2023-05-29T06:46:39;9.35;;;5.32;;
77870;SDS011;67067;46.850;7.578;2023-05-29T06:47:49;10.90;;;5.78;;
77870;SDS011;67067;46.850;7.578;2023-05-29T06:48:57;9.38;;;5.50;;
77870;SDS011;67067;46.850;7.578;2023-05-29T06:50:15;8.43;;;5.63;;
77870;SDS011;67067;46.850;7.578;2023-05-29T06:51:37;10.60;;;5.70;;
77870;SDS011;67067;46.850;7.578;2023-05-29T06:52:48;10.80;;;5.80;;
77870;SDS011;67067;46.850;7.578;2023-05-29T06:54:00;10.45;;;5.60;;
77870;SDS011;67067;46.850;7.578;2023-05-29T06:55:28;8.38;;;5.07;;
77870;SDS011;67067;46.850;7.578;2023-05-29T06:56:37;13.55;;;5.78;;
77870;SDS011;67067;46.850;7.578;2023-05-29T06:57:41;9.77;;;5.35;;
77870;SDS011;67067;46.850;7.578;2023-05-29T06:58:45;15.50;;;5.53;;
77870;SDS011;67067;46.850;7.578;2023-05-29T06:59:56;10.35;;;5.28;;
77870;SDS011;67067;46.850;7.578;2023-05-29T07:02:20;10.10;;;5.85;;
77870;SDS011;67067;46.850;7.578;2023-05-29T07:03:28;9.27;;;5.45;;
77870;SDS011;67067;46.850;7.578;2023-05-29T07:04:39;8.32;;;5.45;;
77870;SDS011;67067;46.850;7.578;2023-05-29T07:05:47;8.80;;;5.22;;
77870;SDS011;67067;46.850;7.578;2023-05-29T07:06:54;11.43;;;5.50;;
77870;SDS011;67067;46.850;7.578;2023-05-29T07:07:58;9.35;;;5.63;;
77870;SDS011;67067;46.850;7.578;2023-05-29T07:10:18;8.85;;;5.38;;
77870;SDS011;67067;46.850;7.578;2023-05-29T07:11:24;8.55;;;5.25;;
77870;SDS011;67067;46.850;7.578;2023-05-29T07:12:39;10.50;;;5.30;;
77870;SDS011;67067;46.850;7.578;2023-05-29T07:13:48;11.05;;;5.25;;
77870;SDS011;67067;46.850;7.578;2023-05-29T07:14:53;9.57;;;5.72;;
77870;SDS011;67067;46.850;7.578;2023-05-29T07:16:34;10.35;;;5.35;;
77870;SDS011;67067;46.850;7.578;2023-05-29T07:17:41;14.23;;;5.55;;
77870;SDS011;67067;46.850;7.578;2023-05-29T07:18:52;8.90;;;5.57;;
77870;SDS011;67067;46.850;7.578;2023-05-29T07:20:24;9.20;;;4.90;;
77870;SDS011;67067;46.850;7.578;2023-05-29T07:21:48;11.23;;;5.18;;
77870;SDS011;67067;46.850;7.578;2023-05-29T07:22:57;7.82;;;5.55;;
77870;SDS011;67067;46.850;7.578;2023-05-29T07:24:06;7.65;;;5.05;;
77870;SDS011;67067;46.850;7.578;2023-05-29T07:25:25;10.07;;;5.60;;
77870;SDS011;67067;46.850;7.578;2023-05-29T07:26:35;11.55;;;5.50;;
77870;SDS011;67067;46.850;7.578;2023-05-29T07:27:40;8.38;;;5.30;;
77870;SDS011;67067;46.850;7.578;2023-05-29T07:28:42;7.75;;;4.97;;
77870;SDS011;67067;46.850;7.578;2023-05-29T07:29:59;10.60;;;5.63;;
77870;SDS011;67067;46.850;7.578;2023-05-29T07:31:12;9.27;;;5.70;;
77870;SDS011;67067;46.850;7.578;2023-05-29T07:32:15;8.63;;;5.53;;